createdAt,value
2017-07-23T00:00:53.002Z,1008.17
2017-07-23T00:02:03.286Z,1008.14
2017-07-23T00:03:13.211Z,1008.09
2017-07-23T00:04:23.488Z,1008.1
2017-07-23T00:05:33.776Z,1008.06
2017-07-23T00:06:43.752Z,1008.03
2017-07-23T00:07:53.725Z,1007.91
2017-07-23T00:09:04.259Z,1007.91
2017-07-23T00:10:14.237Z,1007.86
2017-07-23T00:11:24.517Z,1007.85
2017-07-23T00:12:34.792Z,1007.86
2017-07-23T00:13:45.058Z,1007.8
2017-07-23T00:14:55.293Z,1007.83
2017-07-23T00:16:05.272Z,1007.8
2017-07-23T00:17:15.574Z,1007.74
2017-07-23T00:18:25.836Z,1007.77
2017-07-23T00:19:36.155Z,1007.72
2017-07-23T00:20:46.379Z,1007.68
2017-07-23T00:21:56.658Z,1007.66
2017-07-23T00:23:06.972Z,1007.63
2017-07-23T00:24:17.243Z,1007.59
2017-07-23T00:25:27.225Z,1007.58
2017-07-23T00:26:37.450Z,1007.59
2017-07-23T00:27:47.438Z,1007.64
2017-07-23T00:28:57.716Z,1007.6
2017-07-23T00:30:08.013Z,1007.64
2017-07-23T00:31:18.281Z,1007.61
2017-07-23T00:32:28.826Z,1007.58
2017-07-23T00:33:38.804Z,1007.58
2017-07-23T00:34:49.082Z,1007.53
2017-07-23T00:35:59.362Z,1007.53
2017-07-23T00:37:09.333Z,1007.53
2017-07-23T00:38:19.870Z,1007.49
2017-07-23T00:39:30.152Z,1007.52
2017-07-23T00:40:40.427Z,1007.56
2017-07-23T00:41:50.094Z,1007.56
2017-07-23T00:43:00.370Z,1007.56
2017-07-23T00:44:10.887Z,1007.59
2017-07-23T00:45:21.155Z,1007.58
2017-07-23T00:46:31.125Z,1007.61
2017-07-23T00:47:41.086Z,1007.54
2017-07-23T00:48:51.374Z,1007.52
2017-07-23T00:50:01.604Z,1007.48
2017-07-23T00:51:11.879Z,1007.45
2017-07-23T00:52:21.841Z,1007.46
2017-07-23T00:53:31.818Z,1007.44
2017-07-23T00:54:41.808Z,1007.48
2017-07-23T00:55:52.020Z,1007.49
2017-07-23T00:57:02.294Z,1007.52
2017-07-23T00:58:12.262Z,1007.48
2017-07-23T00:59:22.530Z,1007.45
2017-07-23T01:00:32.801Z,1007.42
2017-07-23T01:01:43.331Z,1007.4
2017-07-23T01:02:53.612Z,1007.41
2017-07-23T01:04:03.894Z,1007.4
2017-07-23T01:05:13.879Z,1007.4
2017-07-23T01:06:23.539Z,1007.35
2017-07-23T01:07:33.761Z,1007.33
2017-07-23T01:08:44.044Z,1007.35
2017-07-23T01:09:54.538Z,1007.39
2017-07-23T01:11:04.820Z,1007.35
2017-07-23T01:12:14.802Z,1007.42
2017-07-23T01:13:25.336Z,1007.43
2017-07-23T01:14:35.607Z,1007.46
2017-07-23T01:15:45.914Z,1007.49
2017-07-23T01:16:56.183Z,1007.47
2017-07-23T01:18:06.474Z,1007.46
2017-07-23T01:19:17.007Z,1007.47
2017-07-23T01:20:27.293Z,1007.45
2017-07-23T01:21:36.957Z,1007.47
2017-07-23T01:22:47.231Z,1007.44
2017-07-23T01:23:57.514Z,1007.44
2017-07-23T01:25:08.087Z,1007.44
2017-07-23T01:26:18.369Z,1007.43
2017-07-23T01:27:28.313Z,1007.46
2017-07-23T01:28:38.301Z,1007.4
2017-07-23T01:29:48.293Z,1007.44
2017-07-23T01:30:58.813Z,1007.44
2017-07-23T01:32:08.788Z,1007.41
2017-07-23T01:33:18.756Z,1007.42
2017-07-23T01:34:29.048Z,1007.44
2017-07-23T01:35:39.331Z,1007.44
2017-07-23T01:36:49.855Z,1007.47
2017-07-23T01:37:59.821Z,1007.51
2017-07-23T01:39:10.095Z,1007.48
2017-07-23T01:40:20.370Z,1007.45
2017-07-23T01:41:30.668Z,1007.48
2017-07-23T01:42:40.890Z,1007.42
2017-07-23T01:43:51.203Z,1007.35
2017-07-23T01:45:01.474Z,1007.4
2017-07-23T01:46:10.820Z,1007.42
2017-07-23T01:47:20.770Z,1007.44
2017-07-23T01:48:31.010Z,1007.48
2017-07-23T01:49:41.312Z,1007.48
2017-07-23T01:50:51.581Z,1007.48
2017-07-23T01:52:01.863Z,1007.47
2017-07-23T01:53:12.146Z,1007.43
2017-07-23T01:54:22.661Z,1007.4
2017-07-23T01:55:32.610Z,1007.44
2017-07-23T01:56:42.570Z,1007.43
2017-07-23T01:57:52.555Z,1007.38
2017-07-23T01:59:02.528Z,1007.39
2017-07-23T02:00:13.059Z,1007.39
2017-07-23T02:01:23.321Z,1007.35
2017-07-23T02:02:33.294Z,1007.33
2017-07-23T02:03:43.577Z,1007.27
2017-07-23T02:04:53.884Z,1007.25
2017-07-23T02:06:04.454Z,1007.25
2017-07-23T02:07:14.745Z,1007.24
2017-07-23T02:08:25.020Z,1007.22
2017-07-23T02:09:34.982Z,1007.24
2017-07-23T02:10:44.947Z,1007.25
2017-07-23T02:11:55.473Z,1007.26
2017-07-23T02:13:05.761Z,1007.25
2017-07-23T02:14:16.052Z,1007.21
2017-07-23T02:15:26.335Z,1007.25
2017-07-23T02:16:36.622Z,1007.25
2017-07-23T02:17:47.155Z,1007.21
2017-07-23T02:18:57.423Z,1007.22
2017-07-23T02:20:07.703Z,1007.25
2017-07-23T02:21:18.030Z,1007.24
2017-07-23T02:22:27.990Z,1007.22
2017-07-23T02:23:38.199Z,1007.22
2017-07-23T02:24:48.161Z,1007.18
2017-07-23T02:25:58.457Z,1007.19
2017-07-23T02:27:08.740Z,1007.17
2017-07-23T02:28:19.025Z,1007.19
2017-07-23T02:29:29.539Z,1007.21
2017-07-23T02:30:39.817Z,1007.26
2017-07-23T02:31:49.795Z,1007.24
2017-07-23T02:33:00.111Z,1007.24
2017-07-23T02:34:10.497Z,1007.23
2017-07-23T02:35:21.026Z,1007.24
2017-07-23T02:36:30.985Z,1007.25
2017-07-23T02:37:41.269Z,1007.22
2017-07-23T02:38:51.254Z,1007.18
2017-07-23T02:40:01.217Z,1007.18
2017-07-23T02:41:11.748Z,1007.19
2017-07-23T02:42:22.050Z,1007.19
2017-07-23T02:43:32.344Z,1007.15
2017-07-23T02:44:42.657Z,1007.15
2017-07-23T02:45:52.618Z,1007.14
2017-07-23T02:47:03.139Z,1007.14
2017-07-23T02:48:13.109Z,1007.11
2017-07-23T02:49:23.380Z,1007.07
2017-07-23T02:50:33.651Z,1006.99
2017-07-23T02:51:43.629Z,1006.99
2017-07-23T02:52:53.858Z,1006.97
2017-07-23T02:54:04.141Z,1006.98
2017-07-23T02:55:14.108Z,1007.02
2017-07-23T02:56:24.394Z,1007
2017-07-23T02:57:34.680Z,1007.04
2017-07-23T02:58:44.793Z,1007.03
2017-07-23T02:59:55.073Z,1007.08
2017-07-23T03:01:05.045Z,1007.08
2017-07-23T03:02:15.027Z,1007.1
2017-07-23T03:03:25.295Z,1007.12
2017-07-23T03:04:35.526Z,1007.04
2017-07-23T03:05:45.826Z,1007.03
2017-07-23T03:06:56.098Z,1007.03
2017-07-23T03:08:06.363Z,1007.01
2017-07-23T03:09:16.343Z,1007.01
2017-07-23T03:10:26.883Z,1007.02
2017-07-23T03:11:37.176Z,1007.01
2017-07-23T03:12:47.463Z,1006.99
2017-07-23T03:13:57.741Z,1006.98
2017-07-23T03:15:08.020Z,1006.96
2017-07-23T03:16:18.536Z,1006.98
2017-07-23T03:17:28.502Z,1006.95
2017-07-23T03:18:38.784Z,1006.98
2017-07-23T03:19:49.071Z,1006.92
2017-07-23T03:20:59.349Z,1006.92
2017-07-23T03:22:09.878Z,1006.92
2017-07-23T03:23:20.187Z,1006.98
2017-07-23T03:24:30.465Z,1007.02
2017-07-23T03:25:40.759Z,1007.03
2017-07-23T03:26:50.727Z,1007.13
2017-07-23T03:28:01.315Z,1007.14
2017-07-23T03:29:11.277Z,1007.21
2017-07-23T03:30:21.575Z,1007.23
2017-07-23T03:31:31.899Z,1007.23
2017-07-23T03:32:42.192Z,1007.24
2017-07-23T03:33:52.740Z,1007.28
2017-07-23T03:35:03.019Z,1007.27
2017-07-23T03:36:13.324Z,1007.27
2017-07-23T03:37:23.304Z,1007.32
2017-07-23T03:38:32.960Z,1007.3
2017-07-23T03:39:43.481Z,1007.23
2017-07-23T03:40:53.750Z,1007.27
2017-07-23T03:42:04.023Z,1007.23
2017-07-23T03:43:14.300Z,1007.18
2017-07-23T03:44:24.573Z,1007.24
2017-07-23T03:45:34.778Z,1007.23
2017-07-23T03:46:44.751Z,1007.21
2017-07-23T03:47:55.051Z,1007.2
2017-07-23T03:49:05.013Z,1007.23
2017-07-23T03:50:14.680Z,1007.25
2017-07-23T03:51:24.900Z,1007.29
2017-07-23T03:52:35.164Z,1007.3
2017-07-23T03:53:45.449Z,1007.3
2017-07-23T03:54:55.705Z,1007.3
2017-07-23T03:56:05.985Z,1007.25
2017-07-23T03:57:16.501Z,1007.28
2017-07-23T03:58:26.150Z,1007.26
2017-07-23T03:59:36.440Z,1007.25
2017-07-23T04:00:46.714Z,1007.24
2017-07-23T04:01:57.010Z,1007.17
2017-07-23T04:03:07.236Z,1007.14
2017-07-23T04:04:17.513Z,1007.16
2017-07-23T04:05:27.493Z,1007.17
2017-07-23T04:06:37.447Z,1007.1
2017-07-23T04:07:47.739Z,1007.07
2017-07-23T04:08:58.267Z,1007.05
2017-07-23T04:10:08.237Z,1006.99
2017-07-23T04:11:18.196Z,1006.97
2017-07-23T04:12:28.480Z,1006.97
2017-07-23T04:13:38.761Z,1006.93
2017-07-23T04:14:48.985Z,1006.92
2017-07-23T04:15:58.942Z,1006.91
2017-07-23T04:17:08.914Z,1006.89
2017-07-23T04:18:19.183Z,1006.91
2017-07-23T04:19:29.162Z,1006.9
2017-07-23T04:20:39.375Z,1006.92
2017-07-23T04:21:49.644Z,1006.89
2017-07-23T04:22:59.971Z,1006.91
2017-07-23T04:24:09.930Z,1006.94
2017-07-23T04:25:19.887Z,1006.96
2017-07-23T04:26:30.109Z,1006.95
2017-07-23T04:27:40.064Z,1006.93
2017-07-23T04:28:50.021Z,1006.97
2017-07-23T04:30:00.304Z,1006.96
2017-07-23T04:31:10.583Z,1006.92
2017-07-23T04:32:21.111Z,1006.98
2017-07-23T04:33:30.451Z,1006.97
2017-07-23T04:34:40.108Z,1006.98
2017-07-23T04:35:50.067Z,1006.99
2017-07-23T04:37:00.023Z,1006.97
2017-07-23T04:38:09.627Z,1006.98
2017-07-23T04:39:19.588Z,1006.99
2017-07-23T04:40:29.557Z,1007.05
2017-07-23T04:41:39.830Z,1007
2017-07-23T04:42:50.116Z,1007.06
2017-07-23T04:43:59.783Z,1007.04
2017-07-23T04:45:10.072Z,1006.95
2017-07-23T04:46:20.335Z,1007.04
2017-07-23T04:47:30.599Z,1007.02
2017-07-23T04:48:40.856Z,1007.04
2017-07-23T04:49:51.446Z,1007.01
2017-07-23T04:51:01.753Z,1006.97
2017-07-23T04:52:12.017Z,1007
2017-07-23T04:53:22.292Z,1007
2017-07-23T04:54:32.259Z,1007.03
2017-07-23T04:55:42.799Z,1007.03
2017-07-23T04:56:52.770Z,1007.05
2017-07-23T04:58:03.067Z,1007.05
2017-07-23T04:59:13.036Z,1007.08
2017-07-23T05:00:23.312Z,1007.1
2017-07-23T05:01:33.212Z,1007.09
2017-07-23T05:02:43.178Z,1007.06
2017-07-23T05:03:53.545Z,1007.08
2017-07-23T05:05:03.511Z,1007.07
2017-07-23T05:06:13.794Z,1007
2017-07-23T05:07:24.309Z,1006.96
2017-07-23T05:08:33.966Z,1006.95
2017-07-23T05:09:44.244Z,1006.92
2017-07-23T05:10:54.519Z,1006.88
2017-07-23T05:12:04.801Z,1006.88
2017-07-23T05:13:15.329Z,1006.86
2017-07-23T05:14:25.302Z,1006.86
2017-07-23T05:15:35.275Z,1006.85
2017-07-23T05:16:45.561Z,1006.89
2017-07-23T05:17:55.541Z,1006.86
2017-07-23T05:19:06.070Z,1006.89
2017-07-23T05:20:16.350Z,1006.88
2017-07-23T05:21:26.008Z,1006.86
2017-07-23T05:22:36.286Z,1006.86
2017-07-23T05:23:46.568Z,1006.84
2017-07-23T05:24:57.095Z,1006.81
2017-07-23T05:26:07.100Z,1006.79
2017-07-23T05:27:17.374Z,1006.78
2017-07-23T05:28:27.649Z,1006.76
2017-07-23T05:29:37.946Z,1006.74
2017-07-23T05:30:48.488Z,1006.72
2017-07-23T05:31:58.463Z,1006.69
2017-07-23T05:33:08.445Z,1006.67
2017-07-23T05:34:18.740Z,1006.68
2017-07-23T05:35:28.712Z,1006.68
2017-07-23T05:36:38.934Z,1006.68
2017-07-23T05:37:49.219Z,1006.65
2017-07-23T05:38:59.509Z,1006.62
2017-07-23T05:40:09.807Z,1006.67
2017-07-23T05:41:20.082Z,1006.6
2017-07-23T05:42:30.327Z,1006.59
2017-07-23T05:43:40.608Z,1006.58
2017-07-23T05:44:50.888Z,1006.6
2017-07-23T05:46:00.857Z,1006.51
2017-07-23T05:47:10.520Z,1006.53
2017-07-23T05:48:21.051Z,1006.54
2017-07-23T05:49:31.039Z,1006.54
2017-07-23T05:50:41.336Z,1006.58
2017-07-23T05:51:51.614Z,1006.55
2017-07-23T05:53:01.578Z,1006.56
2017-07-23T05:54:12.125Z,1006.55
2017-07-23T05:55:22.417Z,1006.54
2017-07-23T05:56:32.540Z,1006.56
2017-07-23T05:57:42.811Z,1006.48
2017-07-23T05:58:52.760Z,1006.49
2017-07-23T06:00:03.280Z,1006.46
2017-07-23T06:01:13.573Z,1006.47
2017-07-23T06:02:23.859Z,1006.49
2017-07-23T06:03:33.822Z,1006.45
2017-07-23T06:04:43.794Z,1006.5
2017-07-23T06:05:54.005Z,1006.48
2017-07-23T06:07:04.276Z,1006.52
2017-07-23T06:08:14.243Z,1006.55
2017-07-23T06:09:24.523Z,1006.63
2017-07-23T06:10:34.797Z,1006.71
2017-07-23T06:11:45.333Z,1006.8
2017-07-23T06:12:55.614Z,1007.02
2017-07-23T06:14:05.888Z,1007.25
2017-07-23T06:15:15.538Z,1007.71
2017-07-23T06:16:25.814Z,1007.7
2017-07-23T06:17:36.046Z,1007.85
2017-07-23T06:18:46.320Z,1007.66
2017-07-23T06:19:56.597Z,1007.51
2017-07-23T06:21:06.566Z,1007.3
2017-07-23T06:22:16.859Z,1007.55
2017-07-23T06:23:27.463Z,1007.65
2017-07-23T06:24:37.432Z,1007.64
2017-07-23T06:25:47.710Z,1007.61
2017-07-23T06:26:57.981Z,1007.6
2017-07-23T06:28:08.306Z,1007.67
2017-07-23T06:29:18.532Z,1007.64
2017-07-23T06:30:28.182Z,1007.65
2017-07-23T06:31:38.160Z,1007.66
2017-07-23T06:32:48.440Z,1007.71
2017-07-23T06:33:58.724Z,1007.7
2017-07-23T06:35:09.276Z,1007.73
2017-07-23T06:36:19.547Z,1007.73
2017-07-23T06:37:29.202Z,1007.75
2017-07-23T06:38:39.181Z,1007.74
2017-07-23T06:39:49.171Z,1007.73
2017-07-23T06:40:59.696Z,1007.75
2017-07-23T06:42:09.964Z,1007.76
2017-07-23T06:43:20.234Z,1007.78
2017-07-23T06:44:30.193Z,1007.74
2017-07-23T06:45:40.465Z,1007.8
2017-07-23T06:46:50.368Z,1007.89
2017-07-23T06:48:00.355Z,1008.01
2017-07-23T06:49:10.326Z,1008.01
2017-07-23T06:50:20.615Z,1007.99
2017-07-23T06:51:30.885Z,1007.96
2017-07-23T06:52:41.410Z,1007.93
2017-07-23T06:53:51.389Z,1007.89
2017-07-23T06:55:01.687Z,1007.72
2017-07-23T06:56:11.968Z,1007.55
2017-07-23T06:57:21.943Z,1007.51
2017-07-23T06:58:32.469Z,1007.49
2017-07-23T06:59:42.755Z,1007.41
2017-07-23T07:00:53.030Z,1007.26
2017-07-23T07:02:03.033Z,1007.14
2017-07-23T07:03:13.010Z,1007.12
2017-07-23T07:04:22.899Z,1007.07
2017-07-23T07:05:33.188Z,1007
2017-07-23T07:06:43.182Z,1007.06
2017-07-23T07:07:53.160Z,1007.11
2017-07-23T07:09:03.129Z,1007.16
2017-07-23T07:10:13.697Z,1007.18
2017-07-23T07:11:23.665Z,1007.22
2017-07-23T07:12:33.975Z,1007.29
2017-07-23T07:13:44.264Z,1007.25
2017-07-23T07:14:54.228Z,1007.28
2017-07-23T07:16:04.768Z,1007.18
2017-07-23T07:17:15.042Z,1007.16
2017-07-23T07:18:25.326Z,1007.18
2017-07-23T07:19:35.615Z,1007.14
2017-07-23T07:20:45.586Z,1007.05
2017-07-23T07:21:55.794Z,1007.05
2017-07-23T07:23:05.774Z,1006.98
2017-07-23T07:24:16.048Z,1006.97
2017-07-23T07:25:26.017Z,1006.92
2017-07-23T07:26:35.997Z,1006.9
2017-07-23T07:27:46.519Z,1006.86
2017-07-23T07:28:56.786Z,1006.89
2017-07-23T07:30:07.047Z,1006.85
2017-07-23T07:31:17.321Z,1006.88
2017-07-23T07:32:26.963Z,1006.82
2017-07-23T07:33:37.189Z,1006.8
2017-07-23T07:34:47.468Z,1006.74
2017-07-23T07:35:57.442Z,1006.65
2017-07-23T07:37:07.744Z,1006.62
2017-07-23T07:38:18.035Z,1006.59
2017-07-23T07:39:28.264Z,1006.6
2017-07-23T07:40:38.253Z,1006.6
2017-07-23T07:41:48.532Z,1006.61
2017-07-23T07:42:58.809Z,1006.64
2017-07-23T07:44:09.072Z,1006.67
2017-07-23T07:45:19.607Z,1006.75
2017-07-23T07:46:29.889Z,1006.7
2017-07-23T07:47:39.552Z,1006.75
2017-07-23T07:48:49.826Z,1006.76
2017-07-23T07:49:59.168Z,1006.74
2017-07-23T07:51:09.688Z,1006.69
2017-07-23T07:52:19.977Z,1006.7
2017-07-23T07:53:30.263Z,1006.79
2017-07-23T07:54:39.927Z,1006.77
2017-07-23T07:55:50.198Z,1006.74
2017-07-23T07:57:00.720Z,1006.72
2017-07-23T07:58:11.003Z,1006.66
2017-07-23T07:59:20.980Z,1006.66
2017-07-23T08:00:30.949Z,1006.69
2017-07-23T08:01:40.936Z,1006.68
2017-07-23T08:02:51.472Z,1006.71
2017-07-23T08:04:01.424Z,1006.8
2017-07-23T08:05:11.085Z,1006.87
2017-07-23T08:06:21.074Z,1006.94
2017-07-23T08:07:31.381Z,1006.97
2017-07-23T08:08:41.919Z,1006.96
2017-07-23T08:09:52.193Z,1006.99
2017-07-23T08:11:02.507Z,1007.09
2017-07-23T08:12:12.154Z,1007.16
2017-07-23T08:13:22.438Z,1007.15
2017-07-23T08:14:32.361Z,1007.17
2017-07-23T08:15:42.655Z,1007.22
2017-07-23T08:16:52.958Z,1007.29
2017-07-23T08:18:03.239Z,1007.32
2017-07-23T08:19:13.522Z,1007.32
2017-07-23T08:20:23.746Z,1007.36
2017-07-23T08:21:34.034Z,1007.4
2017-07-23T08:22:44.330Z,1007.37
2017-07-23T08:23:54.311Z,1007.39
2017-07-23T08:25:04.623Z,1007.41
2017-07-23T08:26:15.158Z,1007.43
2017-07-23T08:27:25.125Z,1007.49
2017-07-23T08:28:34.778Z,1007.5
2017-07-23T08:29:45.096Z,1007.52
2017-07-23T08:30:55.092Z,1007.53
2017-07-23T08:32:05.605Z,1007.55
2017-07-23T08:33:15.575Z,1007.56
2017-07-23T08:34:25.861Z,1007.54
2017-07-23T08:35:36.155Z,1007.57
2017-07-23T08:36:45.794Z,1007.56
2017-07-23T08:37:56.302Z,1007.58
2017-07-23T08:39:06.601Z,1007.58
2017-07-23T08:40:16.890Z,1007.63
2017-07-23T08:41:27.171Z,1007.61
2017-07-23T08:42:37.458Z,1007.64
2017-07-23T08:43:47.694Z,1007.65
2017-07-23T08:44:57.991Z,1007.61
2017-07-23T08:46:08.273Z,1007.64
2017-07-23T08:47:18.259Z,1007.65
2017-07-23T08:48:28.252Z,1007.67
2017-07-23T08:49:38.511Z,1007.66
2017-07-23T08:50:48.480Z,1007.72
2017-07-23T08:51:58.450Z,1007.76
2017-07-23T08:53:08.746Z,1007.69
2017-07-23T08:54:19.259Z,1007.73
2017-07-23T08:55:29.552Z,1007.78
2017-07-23T08:56:39.829Z,1007.74
2017-07-23T08:57:49.797Z,1007.76
2017-07-23T08:58:59.762Z,1007.79
2017-07-23T09:00:10.073Z,1007.75
2017-07-23T09:01:20.603Z,1007.81
2017-07-23T09:02:30.583Z,1007.82
2017-07-23T09:03:40.872Z,1007.84
2017-07-23T09:04:51.145Z,1007.77
2017-07-23T09:06:01.424Z,1007.81
2017-07-23T09:07:11.644Z,1007.84
2017-07-23T09:08:21.629Z,1007.9
2017-07-23T09:09:31.935Z,1007.83
2017-07-23T09:10:41.923Z,1007.87
2017-07-23T09:11:52.216Z,1007.86
2017-07-23T09:13:02.430Z,1007.8
2017-07-23T09:14:12.720Z,1007.85
2017-07-23T09:15:22.394Z,1007.87
2017-07-23T09:16:32.382Z,1007.86
2017-07-23T09:17:42.681Z,1007.86
2017-07-23T09:18:52.593Z,1007.81
2017-07-23T09:20:02.869Z,1007.83
2017-07-23T09:21:12.852Z,1007.83
2017-07-23T09:22:22.835Z,1007.89
2017-07-23T09:23:33.138Z,1007.87
2017-07-23T09:24:43.743Z,1007.87
2017-07-23T09:25:53.707Z,1007.93
2017-07-23T09:27:04.001Z,1007.94
2017-07-23T09:28:14.296Z,1007.99
2017-07-23T09:29:24.570Z,1007.97
2017-07-23T09:30:34.800Z,1007.93
2017-07-23T09:31:45.087Z,1007.93
2017-07-23T09:32:55.087Z,1007.94
2017-07-23T09:34:05.401Z,1007.95
2017-07-23T09:35:15.697Z,1007.99
2017-07-23T09:36:25.923Z,1008.01
2017-07-23T09:37:36.210Z,1008.03
2017-07-23T09:38:46.502Z,1008.01
2017-07-23T09:39:56.792Z,1008.01
2017-07-23T09:41:07.096Z,1007.92
2017-07-23T09:42:17.325Z,1007.95
2017-07-23T09:43:27.598Z,1007.97
2017-07-23T09:44:37.881Z,1007.98
2017-07-23T09:45:47.551Z,1007.95
2017-07-23T09:46:57.846Z,1007.97
2017-07-23T09:48:08.390Z,1007.98
2017-07-23T09:49:18.674Z,1007.96
2017-07-23T09:50:28.643Z,1007.93
2017-07-23T09:51:38.946Z,1007.9
2017-07-23T09:52:49.225Z,1007.95
2017-07-23T09:53:59.783Z,1007.87
2017-07-23T09:55:10.088Z,1007.9
2017-07-23T09:56:20.352Z,1007.88
2017-07-23T09:57:29.717Z,1007.93
2017-07-23T09:58:39.996Z,1007.84
2017-07-23T09:59:50.222Z,1007.85
2017-07-23T10:01:00.524Z,1007.81
2017-07-23T10:02:10.808Z,1007.89
2017-07-23T10:03:21.084Z,1007.91
2017-07-23T10:04:31.377Z,1008.04
2017-07-23T10:05:41.930Z,1007.89
2017-07-23T10:06:51.925Z,1007.95
2017-07-23T10:08:02.229Z,1007.88
2017-07-23T10:09:12.204Z,1007.91
2017-07-23T10:10:22.198Z,1007.88
2017-07-23T10:11:32.739Z,1007.77
2017-07-23T10:12:43.041Z,1007.79
2017-07-23T10:13:53.336Z,1007.73
2017-07-23T10:15:03.317Z,1007.67
2017-07-23T10:16:13.590Z,1007.65
2017-07-23T10:17:24.116Z,1007.67
2017-07-23T10:18:34.127Z,1007.68
2017-07-23T10:19:44.440Z,1007.7
2017-07-23T10:20:54.728Z,1007.76
2017-07-23T10:22:04.384Z,1007.8
2017-07-23T10:23:14.357Z,1007.8
2017-07-23T10:24:24.324Z,1007.81
2017-07-23T10:25:34.611Z,1007.75
2017-07-23T10:26:44.586Z,1007.77
2017-07-23T10:27:53.952Z,1007.76
2017-07-23T10:29:04.502Z,1007.77
2017-07-23T10:30:14.930Z,1007.69
2017-07-23T10:31:24.907Z,1007.75
2017-07-23T10:32:34.900Z,1007.8
2017-07-23T10:33:44.888Z,1007.82
2017-07-23T10:34:55.418Z,1007.8
2017-07-23T10:36:05.743Z,1007.77
2017-07-23T10:37:15.409Z,1007.8
2017-07-23T10:38:25.709Z,1007.79
2017-07-23T10:39:35.988Z,1007.81
2017-07-23T10:40:46.205Z,1007.89
2017-07-23T10:41:56.477Z,1007.83
2017-07-23T10:43:06.766Z,1007.84
2017-07-23T10:44:17.067Z,1007.91
2017-07-23T10:45:27.040Z,1007.89
2017-07-23T10:46:37.587Z,1007.89
2017-07-23T10:47:47.561Z,1007.89
2017-07-23T10:48:57.543Z,1007.84
2017-07-23T10:50:07.527Z,1007.93
2017-07-23T10:51:17.827Z,1007.96
2017-07-23T10:52:28.034Z,1007.9
2017-07-23T10:53:38.356Z,1007.92
2017-07-23T10:54:48.347Z,1007.91
2017-07-23T10:55:58.652Z,1007.87
2017-07-23T10:57:08.960Z,1007.86
2017-07-23T10:58:19.186Z,1007.91
2017-07-23T10:59:29.476Z,1007.98
2017-07-23T11:00:39.148Z,1007.83
2017-07-23T11:01:49.138Z,1007.89
2017-07-23T11:02:59.449Z,1007.91
2017-07-23T11:04:09.678Z,1007.94
2017-07-23T11:05:19.661Z,1007.94
2017-07-23T11:06:29.976Z,1007.86
2017-07-23T11:07:39.979Z,1007.82
2017-07-23T11:08:50.276Z,1007.88
2017-07-23T11:10:00.820Z,1007.9
2017-07-23T11:11:11.121Z,1007.89
2017-07-23T11:12:21.417Z,1007.9
2017-07-23T11:13:31.706Z,1007.86
2017-07-23T11:14:42.005Z,1007.73
2017-07-23T11:15:52.551Z,1007.89
2017-07-23T11:17:02.858Z,1007.9
2017-07-23T11:18:13.152Z,1007.8
2017-07-23T11:19:23.129Z,1007.88
2017-07-23T11:20:33.439Z,1007.9
2017-07-23T11:21:43.970Z,1007.89
2017-07-23T11:22:54.277Z,1007.83
2017-07-23T11:24:04.575Z,1007.82
2017-07-23T11:25:14.848Z,1007.89
2017-07-23T11:26:24.846Z,1007.93
2017-07-23T11:27:34.821Z,1007.87
2017-07-23T11:28:45.123Z,1007.91
2017-07-23T11:29:55.422Z,1007.79
2017-07-23T11:31:05.426Z,1007.84
2017-07-23T11:32:15.436Z,1007.81
2017-07-23T11:33:25.681Z,1007.75
2017-07-23T11:34:35.653Z,1007.78
2017-07-23T11:35:45.659Z,1007.73
2017-07-23T11:36:55.941Z,1007.93
2017-07-23T11:38:06.213Z,1007.74
2017-07-23T11:39:16.451Z,1007.73
2017-07-23T11:40:26.767Z,1007.75
2017-07-23T11:41:37.061Z,1007.71
2017-07-23T11:42:47.038Z,1007.66
2017-07-23T11:43:56.693Z,1007.72
2017-07-23T11:45:07.228Z,1007.69
2017-07-23T11:46:17.517Z,1007.7
2017-07-23T11:47:27.505Z,1007.7
2017-07-23T11:48:37.801Z,1007.68
2017-07-23T11:49:47.772Z,1007.62
2017-07-23T11:50:58.306Z,1007.65
2017-07-23T11:52:08.587Z,1007.59
2017-07-23T11:53:18.884Z,1007.63
2017-07-23T11:54:28.868Z,1007.6
2017-07-23T11:55:39.165Z,1007.61
2017-07-23T11:56:49.696Z,1007.63
2017-07-23T11:57:59.999Z,1007.71
2017-07-23T11:59:10.306Z,1007.67
2017-07-23T12:00:20.289Z,1007.63
2017-07-23T12:01:30.604Z,1007.68
2017-07-23T12:02:41.158Z,1007.62
2017-07-23T12:03:51.492Z,1007.63
2017-07-23T12:05:01.768Z,1007.62
2017-07-23T12:06:12.306Z,1007.59
2017-07-23T12:07:22.591Z,1007.63
2017-07-23T12:08:33.130Z,1007.63
2017-07-23T12:09:43.094Z,1007.6
2017-07-23T12:10:53.405Z,1007.61
2017-07-23T12:12:03.395Z,1007.65
2017-07-23T12:13:13.065Z,1007.61
2017-07-23T12:14:23.639Z,1007.64
2017-07-23T12:15:33.923Z,1007.7
2017-07-23T12:16:44.211Z,1007.7
2017-07-23T12:17:54.193Z,1007.63
2017-07-23T12:19:04.491Z,1007.52
2017-07-23T12:20:15.088Z,1007.69
2017-07-23T12:21:25.400Z,1007.74
2017-07-23T12:22:35.696Z,1007.63
2017-07-23T12:23:45.353Z,1007.74
2017-07-23T12:24:55.643Z,1007.74
2017-07-23T12:26:06.195Z,1007.66
2017-07-23T12:27:16.487Z,1007.63
2017-07-23T12:28:26.475Z,1007.75
2017-07-23T12:29:36.771Z,1007.75
2017-07-23T12:30:47.082Z,1007.65
2017-07-23T12:31:57.631Z,1007.81
2017-07-23T12:33:07.913Z,1007.84
2017-07-23T12:34:18.218Z,1007.8
2017-07-23T12:35:28.505Z,1007.71
2017-07-23T12:36:38.802Z,1007.68
2017-07-23T12:37:49.324Z,1007.67
2017-07-23T12:38:59.307Z,1007.65
2017-07-23T12:40:09.304Z,1007.65
2017-07-23T12:41:19.587Z,1007.68
2017-07-23T12:42:29.902Z,1007.68
2017-07-23T12:43:40.450Z,1007.71
2017-07-23T12:44:50.729Z,1007.64
2017-07-23T12:46:01.033Z,1007.66
2017-07-23T12:47:11.332Z,1007.78
2017-07-23T12:48:21.322Z,1007.72
2017-07-23T12:49:31.874Z,1007.76
2017-07-23T12:50:41.848Z,1007.74
2017-07-23T12:51:51.832Z,1007.62
2017-07-23T12:53:02.111Z,1007.68
2017-07-23T12:54:12.128Z,1007.6
2017-07-23T12:55:22.687Z,1007.54
2017-07-23T12:56:32.992Z,1007.53
2017-07-23T12:57:43.009Z,1007.53
2017-07-23T12:58:53.290Z,1007.55
2017-07-23T13:00:03.578Z,1007.59
2017-07-23T13:01:13.836Z,1007.57
2017-07-23T13:02:24.139Z,1007.59
2017-07-23T13:03:34.427Z,1007.48
2017-07-23T13:04:44.728Z,1007.58
2017-07-23T13:05:55.027Z,1007.48
2017-07-23T13:07:05.580Z,1007.55
2017-07-23T13:08:15.554Z,1007.58
2017-07-23T13:09:25.522Z,1007.42
2017-07-23T13:10:35.821Z,1007.58
2017-07-23T13:11:46.126Z,1007.58
2017-07-23T13:12:56.733Z,1007.48
2017-07-23T13:14:07.013Z,1007.46
2017-07-23T13:15:17.290Z,1007.49
2017-07-23T13:16:27.279Z,1007.41
2017-07-23T13:17:37.556Z,1007.57
2017-07-23T13:18:47.808Z,1007.67
2017-07-23T13:19:58.098Z,1007.58
2017-07-23T13:21:08.092Z,1007.58
2017-07-23T13:22:18.066Z,1007.34
2017-07-23T13:23:28.365Z,1007.39
2017-07-23T13:24:38.912Z,1007.41
2017-07-23T13:25:49.229Z,1007.35
2017-07-23T13:26:59.534Z,1007.37
2017-07-23T13:28:09.829Z,1007.37
2017-07-23T13:29:20.122Z,1007.37
2017-07-23T13:30:30.046Z,1007.37
2017-07-23T13:31:40.333Z,1007.3
2017-07-23T13:32:50.311Z,1007.28
2017-07-23T13:34:00.295Z,1007.29
2017-07-23T13:35:09.969Z,1007.25
2017-07-23T13:36:20.536Z,1007.24
2017-07-23T13:37:30.833Z,1007.35
2017-07-23T13:38:40.811Z,1007.34
2017-07-23T13:39:51.103Z,1007.33
2017-07-23T13:41:00.754Z,1007.44
2017-07-23T13:42:10.975Z,1007.43
2017-07-23T13:43:20.945Z,1007.42
2017-07-23T13:44:30.931Z,1007.37
2017-07-23T13:45:41.230Z,1007.45
2017-07-23T13:46:51.215Z,1007.47
2017-07-23T13:48:01.443Z,1007.32
2017-07-23T13:49:11.104Z,1007.38
2017-07-23T13:50:21.409Z,1007.3
2017-07-23T13:51:31.700Z,1007.38
2017-07-23T13:52:42.002Z,1007.39
2017-07-23T13:53:52.598Z,1007.35
2017-07-23T13:55:02.903Z,1007.41
2017-07-23T13:56:13.202Z,1007.23
2017-07-23T13:57:23.483Z,1007.25
2017-07-23T13:58:33.483Z,1007.36
2017-07-23T13:59:43.412Z,1007.24
2017-07-23T14:00:53.697Z,1007.31
2017-07-23T14:02:03.997Z,1007.35
2017-07-23T14:03:14.274Z,1007.38
2017-07-23T14:04:24.255Z,1007.3
2017-07-23T14:05:34.803Z,1007.42
2017-07-23T14:06:44.788Z,1007.35
2017-07-23T14:07:55.090Z,1007.3
2017-07-23T14:09:05.366Z,1007.36
2017-07-23T14:10:15.655Z,1007.42
2017-07-23T14:11:25.573Z,1007.43
2017-07-23T14:12:35.874Z,1007.55